createdAt,value
2024-05-09T00:03:33.684Z,10.40
2024-05-09T00:07:15.767Z,10.80
2024-05-09T00:10:57.950Z,11.70
2024-05-09T00:14:39.994Z,10.60
2024-05-09T00:18:22.214Z,11.07
2024-05-09T00:22:04.314Z,13.30
2024-05-09T00:25:46.290Z,12.23
2024-05-09T00:29:28.415Z,11.45
2024-05-09T00:33:11.485Z,12.95
2024-05-09T00:36:53.845Z,12.40
2024-05-09T00:40:40.975Z,13.63
2024-05-09T00:44:24.914Z,12.35
2024-05-09T00:48:09.375Z,12.75
2024-05-09T00:52:00.720Z,13.60
2024-05-09T00:55:43.484Z,11.35
2024-05-09T00:59:26.020Z,11.55
2024-05-09T01:03:12.988Z,11.30
2024-05-09T01:06:56.235Z,11.00
2024-05-09T01:10:39.128Z,13.50
2024-05-09T01:14:21.865Z,11.60
2024-05-09T01:18:09.857Z,11.65
2024-05-09T01:21:52.200Z,11.10
2024-05-09T01:25:34.222Z,11.90
2024-05-09T01:29:16.417Z,10.95
2024-05-09T01:32:58.598Z,13.02
2024-05-09T01:36:40.616Z,11.13
2024-05-09T01:40:29.273Z,10.98
2024-05-09T01:44:18.711Z,10.10
2024-05-09T01:48:01.460Z,11.13
2024-05-09T01:51:43.852Z,10.73
2024-05-09T01:55:26.022Z,10.68
2024-05-09T01:59:10.456Z,10.85
2024-05-09T02:02:52.565Z,11.80
2024-05-09T02:06:40.707Z,11.52
2024-05-09T02:10:26.599Z,10.45
2024-05-09T02:14:14.521Z,11.60
2024-05-09T02:17:56.752Z,11.73
2024-05-09T02:21:41.126Z,11.40
2024-05-09T02:25:24.390Z,11.15
2024-05-09T02:29:06.399Z,10.40
2024-05-09T02:32:48.544Z,11.48
2024-05-09T02:36:30.603Z,10.43
2024-05-09T02:40:14.904Z,10.13
2024-05-09T02:44:00.315Z,10.70
2024-05-09T02:47:42.480Z,10.23
2024-05-09T02:51:24.593Z,11.20
2024-05-09T02:55:06.716Z,10.68
2024-05-09T02:58:48.730Z,11.65
2024-05-09T03:02:31.961Z,12.15
2024-05-09T03:06:14.034Z,11.52
2024-05-09T03:09:56.007Z,10.95
2024-05-09T03:13:41.488Z,11.80
2024-05-09T03:17:24.106Z,13.55
2024-05-09T03:21:06.533Z,11.73
2024-05-09T03:24:48.519Z,13.10
2024-05-09T03:28:30.413Z,14.27
2024-05-09T03:32:12.430Z,12.45
2024-05-09T03:35:54.631Z,12.98
2024-05-09T03:39:36.579Z,13.65
2024-05-09T03:43:19.970Z,13.45
2024-05-09T03:47:02.127Z,13.82
2024-05-09T03:50:44.121Z,13.40
2024-05-09T03:54:27.626Z,14.68
2024-05-09T03:58:09.753Z,13.57
2024-05-09T04:01:51.840Z,15.15
2024-05-09T04:05:34.110Z,12.98
2024-05-09T04:09:16.703Z,14.15
2024-05-09T04:12:58.620Z,13.93
2024-05-09T04:16:40.560Z,13.40
2024-05-09T04:20:33.093Z,13.38
2024-05-09T04:24:20.191Z,14.50
2024-05-09T04:28:02.230Z,12.68
2024-05-09T04:31:44.398Z,14.50
2024-05-09T04:35:26.618Z,13.60
2024-05-09T04:39:08.644Z,15.40
2024-05-09T04:42:50.618Z,15.77
2024-05-09T04:46:32.530Z,15.45
2024-05-09T04:50:21.205Z,17.75
2024-05-09T04:54:22.141Z,15.73
2024-05-09T04:58:12.271Z,15.95
2024-05-09T05:01:54.380Z,15.55
2024-05-09T05:05:43.505Z,15.55
2024-05-09T05:09:26.595Z,16.75
2024-05-09T05:13:20.465Z,15.32
2024-05-09T05:17:03.648Z,16.88
2024-05-09T05:20:45.726Z,17.27
2024-05-09T05:24:27.836Z,17.42
2024-05-09T05:28:10.674Z,16.23
2024-05-09T05:31:52.909Z,17.38
2024-05-09T05:35:35.130Z,17.48
2024-05-09T05:39:17.199Z,16.42
2024-05-09T05:42:59.275Z,15.32
2024-05-09T05:46:41.444Z,14.70
2024-05-09T05:50:28.136Z,13.68
2024-05-09T05:54:17.266Z,14.45
2024-05-09T05:57:59.649Z,13.32
2024-05-09T06:01:41.582Z,12.40
2024-05-09T06:05:24.766Z,11.57
2024-05-09T06:09:08.554Z,10.25
2024-05-09T06:12:50.633Z,11.23
2024-05-09T06:16:32.593Z,11.32
2024-05-09T06:20:20.624Z,10.43
2024-05-09T06:24:09.102Z,9.23
2024-05-09T06:27:51.161Z,8.90
2024-05-09T06:31:33.089Z,9.50
2024-05-09T06:35:15.907Z,8.77
2024-05-09T06:38:57.823Z,9.52
2024-05-09T06:42:39.904Z,9.50
2024-05-09T06:46:21.901Z,8.82
2024-05-09T06:50:08.220Z,9.00
2024-05-09T06:53:52.494Z,8.98
2024-05-09T06:57:34.571Z,8.57
2024-05-09T07:01:16.489Z,9.63
2024-05-09T07:04:58.541Z,8.30
2024-05-09T07:08:41.324Z,8.13
2024-05-09T07:12:24.779Z,8.43
2024-05-09T07:16:07.065Z,7.50
2024-05-09T07:19:50.000Z,8.10
2024-05-09T07:23:32.336Z,7.97
2024-05-09T07:27:14.353Z,6.82
2024-05-09T07:30:56.222Z,7.20
2024-05-09T07:34:38.171Z,7.80
2024-05-09T07:38:20.313Z,6.90
2024-05-09T07:42:02.368Z,7.30
2024-05-09T07:45:52.286Z,5.78
2024-05-09T07:53:39.034Z,6.60
2024-05-09T07:57:23.481Z,6.68
2024-05-09T08:01:05.855Z,6.22
2024-05-09T08:04:48.191Z,6.20
2024-05-09T08:08:30.161Z,8.18
2024-05-09T08:12:15.714Z,6.90
2024-05-09T08:15:57.706Z,7.28
2024-05-09T08:19:40.958Z,7.22
2024-05-09T08:23:23.899Z,6.57
2024-05-09T08:27:06.125Z,6.47
2024-05-09T08:30:48.435Z,7.78
2024-05-09T08:34:30.547Z,6.57
2024-05-09T08:38:12.549Z,5.53
2024-05-09T08:41:54.628Z,6.93
2024-05-09T08:45:42.681Z,7.70
2024-05-09T08:49:26.763Z,7.47
2024-05-09T08:53:09.187Z,7.22
2024-05-09T08:56:52.112Z,7.07
2024-05-09T09:00:37.415Z,8.13
2024-05-09T09:04:21.948Z,6.70
2024-05-09T09:08:08.037Z,6.18
2024-05-09T09:11:50.144Z,6.75
2024-05-09T09:15:32.358Z,7.38
2024-05-09T09:19:14.887Z,7.07
2024-05-09T09:22:58.810Z,6.80
2024-05-09T09:26:40.900Z,6.30
2024-05-09T09:30:34.054Z,6.40
2024-05-09T09:34:19.135Z,5.88
2024-05-09T09:38:05.947Z,6.07
2024-05-09T09:41:48.710Z,6.13
2024-05-09T09:45:32.555Z,6.80
2024-05-09T09:49:15.971Z,5.65
2024-05-09T09:53:01.185Z,6.28
2024-05-09T09:56:45.577Z,5.93
2024-05-09T10:00:32.753Z,6.78
2024-05-09T10:04:18.582Z,6.35
2024-05-09T10:08:06.683Z,6.40
2024-05-09T10:11:52.078Z,5.90
2024-05-09T10:15:50.721Z,5.80
2024-05-09T10:19:34.245Z,5.67
2024-05-09T10:23:43.811Z,5.97
2024-05-09T10:27:29.712Z,6.40
2024-05-09T10:31:14.926Z,6.55
2024-05-09T10:35:06.316Z,5.60
2024-05-09T10:38:53.615Z,6.15
2024-05-09T10:42:38.945Z,5.10
2024-05-09T10:46:21.206Z,4.95
2024-05-09T10:50:07.805Z,5.45
2024-05-09T10:57:41.211Z,5.30
2024-05-09T11:01:23.719Z,6.25
2024-05-09T11:05:06.255Z,4.80
2024-05-09T11:08:48.845Z,5.63
2024-05-09T11:12:30.846Z,6.40
2024-05-09T11:16:21.294Z,5.10
2024-05-09T11:20:08.057Z,5.50
2024-05-09T11:23:52.804Z,5.55
2024-05-09T11:27:35.907Z,4.90
2024-05-09T11:31:18.267Z,4.90
2024-05-09T11:35:00.430Z,4.43
2024-05-09T11:38:42.465Z,5.30
2024-05-09T11:42:24.371Z,4.32
2024-05-09T11:46:06.476Z,4.38
2024-05-09T11:49:48.563Z,4.97
2024-05-09T11:53:30.677Z,5.20
2024-05-09T11:57:12.742Z,6.68
2024-05-09T12:00:54.796Z,5.05
2024-05-09T12:04:36.859Z,3.80
2024-05-09T12:08:19.381Z,4.35
2024-05-09T12:12:01.319Z,4.95
2024-05-09T12:15:43.298Z,4.90
2024-05-09T12:19:25.587Z,7.93
2024-05-09T12:23:10.018Z,4.47
2024-05-09T12:26:52.754Z,4.90
2024-05-09T12:30:38.784Z,5.10
2024-05-09T12:34:22.657Z,5.15
2024-05-09T12:38:05.052Z,4.53
2024-05-09T12:41:47.173Z,5.22
2024-05-09T12:45:29.150Z,4.30
2024-05-09T12:49:11.774Z,4.22
2024-05-09T12:52:54.666Z,4.90
2024-05-09T12:56:36.653Z,4.60
2024-05-09T13:00:24.113Z,6.65
2024-05-09T13:04:13.271Z,4.32
2024-05-09T13:07:56.922Z,5.15
2024-05-09T13:11:39.204Z,5.18
2024-05-09T13:15:21.234Z,3.90
2024-05-09T13:19:03.193Z,4.85
2024-05-09T13:22:46.062Z,4.70
2024-05-09T13:26:28.066Z,4.95
2024-05-09T13:30:17.614Z,6.10
2024-05-09T13:34:03.848Z,6.10
2024-05-09T13:37:46.127Z,6.07
2024-05-09T13:41:28.060Z,6.57
2024-05-09T13:45:09.969Z,4.93
2024-05-09T13:48:51.934Z,4.97
2024-05-09T13:52:33.878Z,5.60
2024-05-09T13:56:15.855Z,5.75
2024-05-09T13:59:57.983Z,6.53
2024-05-09T14:03:40.163Z,5.50
2024-05-09T14:07:22.271Z,4.82
2024-05-09T14:11:04.508Z,5.55
2024-05-09T14:14:46.671Z,5.30
2024-05-09T14:18:28.804Z,4.57
2024-05-09T14:22:11.143Z,5.30
2024-05-09T14:25:53.557Z,6.45
2024-05-09T14:29:35.720Z,6.50
2024-05-09T14:33:23.520Z,5.78
2024-05-09T14:37:05.740Z,5.07
2024-05-09T14:40:47.770Z,4.93
2024-05-09T14:44:29.825Z,4.53
2024-05-09T14:48:14.765Z,5.43
2024-05-09T14:51:57.079Z,5.03
2024-05-09T14:55:41.201Z,4.40
2024-05-09T14:59:24.395Z,5.65
2024-05-09T15:03:06.730Z,4.78
2024-05-09T15:06:48.857Z,6.35
2024-05-09T15:10:34.873Z,6.30
2024-05-09T15:14:18.483Z,4.57
2024-05-09T15:18:00.816Z,4.40
2024-05-09T15:21:42.996Z,4.00
2024-05-09T15:25:25.078Z,4.25
2024-05-09T15:29:07.172Z,4.78
2024-05-09T15:32:49.191Z,4.80
2024-05-09T15:36:31.184Z,4.30
2024-05-09T15:40:18.510Z,4.15
2024-05-09T15:44:07.909Z,4.05
2024-05-09T15:47:50.923Z,3.90
2024-05-09T15:51:34.874Z,5.18
2024-05-09T15:55:16.941Z,4.70
2024-05-09T15:58:59.389Z,4.00
2024-05-09T16:02:41.402Z,3.65
2024-05-09T16:06:23.659Z,5.38
2024-05-09T16:10:07.034Z,4.65
2024-05-09T16:13:49.239Z,4.10
2024-05-09T16:17:31.554Z,4.35
2024-05-09T16:21:13.489Z,4.30
2024-05-09T16:24:55.473Z,4.78
2024-05-09T16:28:37.551Z,3.42
2024-05-09T16:32:19.549Z,3.80
2024-05-09T16:36:01.650Z,4.85
2024-05-09T16:39:43.619Z,4.88
2024-05-09T16:43:26.627Z,4.88
2024-05-09T16:47:09.520Z,4.65
2024-05-09T16:50:51.481Z,3.95
2024-05-09T16:54:33.496Z,4.60
2024-05-09T16:58:15.574Z,5.07
2024-05-09T17:01:57.587Z,4.10
2024-05-09T17:05:40.499Z,4.47
2024-05-09T17:09:22.677Z,4.28
2024-05-09T17:13:07.234Z,3.85
2024-05-09T17:16:50.216Z,4.47
2024-05-09T17:20:35.381Z,4.43
2024-05-09T17:24:19.197Z,4.45
2024-05-09T17:28:06.920Z,3.42
2024-05-09T17:31:49.744Z,4.43
2024-05-09T17:35:32.179Z,4.95
2024-05-09T17:39:14.394Z,4.18
2024-05-09T17:42:56.383Z,4.60
2024-05-09T17:46:38.637Z,3.83
2024-05-09T17:50:27.478Z,4.88
2024-05-09T17:54:15.878Z,4.95
2024-05-09T17:57:58.091Z,5.00
2024-05-09T18:01:40.338Z,4.88
2024-05-09T18:05:22.538Z,5.05
2024-05-09T18:09:04.562Z,5.18
2024-05-09T18:12:47.168Z,7.10
2024-05-09T18:16:29.216Z,4.43
2024-05-09T18:20:17.301Z,5.25
2024-05-09T18:24:06.005Z,4.80
2024-05-09T18:27:48.171Z,5.45
2024-05-09T18:31:30.300Z,4.75
2024-05-09T18:35:12.560Z,4.75
2024-05-09T18:38:54.668Z,4.75
2024-05-09T18:42:36.763Z,7.68
2024-05-09T18:46:21.328Z,4.18
2024-05-09T18:50:04.776Z,4.53
2024-05-09T18:53:51.654Z,5.28
2024-05-09T18:57:33.600Z,5.70
2024-05-09T19:01:15.791Z,4.25
2024-05-09T19:04:58.000Z,5.07
2024-05-09T19:08:42.899Z,4.93
2024-05-09T19:12:24.896Z,3.97
2024-05-09T19:16:07.159Z,4.75
2024-05-09T19:19:49.359Z,5.15
2024-05-09T19:23:35.281Z,4.63
2024-05-09T19:27:19.942Z,4.72
2024-05-09T19:31:01.932Z,4.55
2024-05-09T19:34:43.974Z,5.45
2024-05-09T19:38:25.987Z,5.80
2024-05-09T19:42:08.107Z,5.50
2024-05-09T19:45:50.148Z,7.47
2024-05-09T19:49:32.166Z,5.30
2024-05-09T19:53:14.704Z,5.55
2024-05-09T19:56:56.921Z,6.63
2024-05-09T20:00:41.478Z,6.40
2024-05-09T20:04:25.517Z,5.78
2024-05-09T20:08:10.983Z,5.50
2024-05-09T20:11:53.134Z,6.13
2024-05-09T20:15:36.841Z,7.18
2024-05-09T20:19:19.235Z,6.07
2024-05-09T20:23:01.220Z,6.65
2024-05-09T20:26:43.209Z,6.28
2024-05-09T20:30:31.510Z,6.95
2024-05-09T20:37:57.241Z,7.50
2024-05-09T20:41:45.563Z,7.10
2024-05-09T20:45:27.471Z,6.50
2024-05-09T20:49:09.455Z,7.18
2024-05-09T20:52:51.601Z,8.35
2024-05-09T20:56:34.858Z,8.32
2024-05-09T21:00:19.276Z,10.07
2024-05-09T21:04:07.961Z,8.45
2024-05-09T21:07:50.140Z,10.02
2024-05-09T21:11:32.130Z,11.45
2024-05-09T21:15:14.120Z,11.88
2024-05-09T21:18:56.079Z,10.50
2024-05-09T21:22:38.279Z,12.25
2024-05-09T21:26:23.131Z,11.88
2024-05-09T21:30:07.845Z,12.52
2024-05-09T21:33:52.395Z,11.93
2024-05-09T21:37:34.485Z,11.85
2024-05-09T21:41:16.487Z,11.80
2024-05-09T21:44:58.398Z,11.55
2024-05-09T21:48:40.526Z,11.43
2024-05-09T21:52:22.693Z,12.65
2024-05-09T21:56:04.817Z,11.45
2024-05-09T21:59:47.487Z,11.02
2024-05-09T22:03:29.586Z,11.65
2024-05-09T22:07:11.872Z,12.38
2024-05-09T22:10:56.761Z,11.70
2024-05-09T22:14:38.928Z,11.63
2024-05-09T22:18:20.932Z,12.07
2024-05-09T22:22:03.089Z,12.20
2024-05-09T22:25:45.066Z,10.98
2024-05-09T22:29:27.080Z,13.68
2024-05-09T22:33:10.932Z,12.32
2024-05-09T22:36:54.083Z,12.95
2024-05-09T22:40:45.489Z,14.02
2024-05-09T22:44:30.858Z,13.55
2024-05-09T22:48:13.003Z,15.27
2024-05-09T22:51:55.084Z,13.88
2024-05-09T22:55:37.159Z,13.13
2024-05-09T22:59:19.166Z,12.32
2024-05-09T23:03:01.939Z,13.05
2024-05-09T23:06:44.155Z,13.10
2024-05-09T23:10:32.478Z,13.32
2024-05-09T23:14:21.516Z,14.80
2024-05-09T23:18:03.696Z,13.63
2024-05-09T23:21:45.806Z,13.95
2024-05-09T23:25:28.091Z,13.45
2024-05-09T23:29:10.177Z,13.25
2024-05-09T23:32:52.295Z,14.30
2024-05-09T23:36:34.294Z,14.27
2024-05-09T23:40:19.017Z,13.48
2024-05-09T23:44:04.992Z,14.13
2024-05-09T23:47:47.734Z,14.30
2024-05-09T23:51:29.786Z,15.32
2024-05-09T23:55:11.692Z,13.68
2024-05-09T23:58:53.597Z,14.35
